Flight Track Log - Related Links

Times and Time Zones

All times are in EDT time to prevent confusion due to time zone crossing. See the TRS898 flight status page for this flight to view local times or setup timezone preferences in your user account.

Time Position Orientation Groundspeed Altitude Reporting Facility
EDT Latitude Longitude Course Direction KTS MPH feet Rate Location/Type
Mon 06:19:29 PM 42.8011 -85.5067 122° Southeast 238 274 4,100  Level Chicago Center
Mon 06:23:48 PM 42.6117 -85.0892 128° Southeast 331 381 12,400 1,918 Climbing Cleveland Center
Mon 06:24:48 PM 42.5453 -84.9744 128° Southeast 360 414 14,300 1,909 Climbing Cleveland Center
Mon 06:26:00 PM 42.4728 -84.8483 127° Southeast 380 437 16,600 2,000 Climbing Cleveland Center
Mon 06:27:00 PM 42.3928 -84.7025 127° Southeast 391 450 18,700 1,800 Climbing Cleveland Center
Mon 06:28:00 PM 42.3297 -84.5914 127° Southeast 404 465 20,200 1,650 Climbing Cleveland Center
Mon 06:29:00 PM 42.2592 -84.4664 129° Southeast 417 480 22,000 1,800 Climbing Cleveland Center
Mon 06:30:00 PM 42.1819 -84.3383 128° Southeast 427 491 23,800 1,650 Climbing Cleveland Center
Mon 06:31:00 PM 42.1050 -84.2050 128° Southeast 444 511 25,300 1,450 Climbing Cleveland Center
Mon 06:32:00 PM 42.0278 -84.0719 129° Southeast 444 511 26,700 1,250 Climbing Cleveland Center
Mon 06:33:00 PM 41.9464 -83.9392 128° Southeast 457 526 27,800 1,150 Climbing Cleveland Center
Mon 06:34:00 PM 41.8669 -83.8011 129° Southeast 462 532 29,000 1,550 Climbing Cleveland Center
Mon 06:35:00 PM 41.7850 -83.6661 129° Southeast 462 532 30,900 1,550 Climbing Cleveland Center
Mon 06:36:00 PM 41.6992 -83.5228 128° Southeast 456 525 32,100 550 Climbing Cleveland Center
Mon 06:37:00 PM 41.6211 -83.3914 128° Southeast 456 525 32,000 -100 Descending Cleveland Center
Mon 06:38:00 PM 41.5431 -83.2603 128° Southeast 461 531 31,900  Descending Cleveland Center
Mon 06:39:00 PM 41.4747 -83.1439 128° Southeast 456 525 32,000 50 Climbing Cleveland Center
Mon 06:40:00 PM 41.3983 -83.0136 129° Southeast 451 519 32,000  Level Cleveland Center
Mon 06:41:00 PM 41.3197 -82.8861 128° Southeast 451 519 32,000  Level Cleveland Center
Mon 06:42:00 PM 41.2450 -82.7592 122° Southeast 445 512 32,000  Level Cleveland Center
Mon 06:43:00 PM 41.1789 -82.6192 123° Southeast 445 512 32,000  Level Cleveland Center
Mon 06:44:00 PM 41.1125 -82.4819 125° Southeast 445 512 32,000 350 Level Cleveland Center
Mon 06:45:00 PM 41.0356 -82.3339 123° Southeast 445 512 32,700 500 Climbing Cleveland Center
Mon 06:46:00 PM 40.9667 -82.1917 123° Southeast 453 521 33,000 150 Climbing Cleveland Center
Mon 06:47:00 PM 40.8978 -82.0528 124° Southeast 453 521 33,000  Level Cleveland Center
Mon 06:48:00 PM 40.8286 -81.9167 124° Southeast 453 521 33,000  Level Cleveland Center
Mon 06:49:00 PM 40.7592 -81.7783 123° Southeast 453 521 33,000  Level Cleveland Center
Mon 06:50:00 PM 40.6897 -81.6372 124° Southeast 453 521 33,000  Level Cleveland Center
Mon 06:51:00 PM 40.6181 -81.4994 123° Southeast 453 521 33,000 -250 Level Cleveland Center
Mon 06:52:00 PM 40.5481 -81.3592 123° Southeast 448 516 32,500 -950 Descending Cleveland Center
Mon 06:53:00 PM 40.4803 -81.2219 124° Southeast 448 516 31,100 -625 Descending Cleveland Center
Mon 06:54:24 PM 40.3811 -81.0328 123° Southeast 448 516 31,000 -38 Descending Cleveland Center
Mon 06:55:36 PM 40.3128 -80.8961 124° Southeast 448 516 31,000  Level Cleveland Center
Mon 06:56:36 PM 40.2275 -80.7325 115° Southeast 448 516 31,000  Level Cleveland Center
Mon 06:57:36 PM 40.1736 -80.5831 114° Southeast 448 516 31,000  Level Cleveland Center
Mon 06:58:36 PM 40.1211 -80.4283 115° Southeast 448 516 31,000  Level Cleveland Center
Mon 06:59:36 PM 40.0667 -80.2764 113° Southeast 459 528 31,000  Level Cleveland Center
Mon 07:00:48 PM 40.0142 -80.1114 113° Southeast 459 528 31,000  Level Cleveland Center
Mon 07:01:48 PM 39.9633 -79.9575 114° Southeast 454 522 31,000 -341 Level Cleveland Center
Mon 07:03:44 PM 39.8597 -79.6569 113° Southeast 453 521 30,000 -682 Descending Washington Center
Mon 07:04:44 PM 39.8086 -79.5028 115° Southeast 453 521 29,000 -1,041 Descending Washington Center
Mon 07:05:45 PM 39.7531 -79.3486 114° Southeast 458 527 27,900 -1,131 Descending Washington Center
Mon 07:06:46 PM 39.7014 -79.1975 112° Southeast 458 527 26,700 -1,462 Descending Washington Center
Mon 07:07:44 PM 39.6539 -79.0469 109° East 458 527 25,000 -857 Descending Washington Center
Mon 07:08:45 PM 39.6161 -78.9078 105° East 453 521 25,000 -148 Level Washington Center
Mon 07:09:46 PM 39.5847 -78.7553 106° East 448 516 24,700 -1,300 Descending Washington Center
Mon 07:10:45 PM 39.5511 -78.6033 105° East 448 516 22,400 -2,218 Descending Washington Center
Mon 07:11:45 PM 39.5211 -78.4622 106° East 430 495 20,300 -2,231 Descending Washington Center
Mon 07:12:46 PM 39.4889 -78.3208 105° East 417 480 17,900 -2,231 Descending Washington Center
Mon 07:13:46 PM 39.4589 -78.1800 107° East 407 468 15,800 -1,475 Descending Washington Center
Mon 07:14:44 PM 39.4281 -78.0500 106° East 394 453 15,000 -403 Descending Washington Center
Mon 07:15:45 PM 39.3994 -77.9228 96° East 381 438 15,000  Level Washington Center
Mon 07:16:46 PM 39.3894 -77.7908 79° East 371 427 15,000 -101 Level Washington Center
Mon 07:17:44 PM 39.4083 -77.6597 81° East 364 419 14,800 -1,271 Descending Washington Center
Mon 07:18:44 PM 39.4253 -77.5261 80° East 364 419 12,500 -1,785 Descending Washington Center
Mon 07:19:45 PM 39.4417 -77.4028 79° East 364 419 11,200 -744 Descending Washington Center
Mon 07:20:45 PM 39.4578 -77.2931 79° East 337 388 11,000 -730 Descending Washington Center
Mon 07:22:13 PM 39.4833 -77.1167 90° East 307 353 9,400 -1,378 Descending Potomac TRACON
Mon 07:23:13 PM 39.4833 -77.0167 102° East 295 339 7,600 -1,750 Descending Potomac TRACON
Mon 07:24:13 PM 39.4667 -76.9167 102° East 280 322 5,900 -1,686 Descending Potomac TRACON
Mon 07:25:14 PM 39.4500 -76.8167 194° South 276 318 4,200 -898 Descending Potomac TRACON
Mon 07:26:20 PM 39.4000 -76.8333 201° Southwest 248 285 4,000 -100 Descending Potomac TRACON
Mon 07:27:14 PM 39.3333 -76.8667 218° Southwest 246 283 4,000 -526 Level Potomac TRACON
Mon 07:28:14 PM 39.2833 -76.9167 180° South 246 283 3,000 -571 Descending Potomac TRACON
Mon 07:29:20 PM 39.2333 -76.9167 142° Southeast 172 198 2,800 -472 Descending Potomac TRACON
Mon 07:30:21 PM 39.2000 -76.8833 108° East 160 184 2,000 -397 Descending Potomac TRACON
Mon 07:31:21 PM 39.1833 -76.8167 90° East 162 186 2,000 -350 Level Potomac TRACON
Mon 07:32:21 PM 39.1833 -76.7667 90° East 147 169 1,300 -650 Descending Potomac TRACON
Mon 07:33:21 PM 39.1833 -76.7167 90° East 130 150 700 -600 Descending Potomac TRACON

Login

Don't have an account? Register now (free) for customized features, flight alerts, and more!